createdAt,value
2023-03-16T00:00:51.341Z,6.07
2023-03-16T00:03:20.998Z,5.94
2023-03-16T00:05:53.105Z,5.96
2023-03-16T00:08:20.487Z,5.94
2023-03-16T00:10:48.025Z,5.96
2023-03-16T00:13:19.235Z,5.96
2023-03-16T00:16:04.505Z,5.89
2023-03-16T00:18:38.646Z,5.80
2023-03-16T00:21:06.384Z,5.75
2023-03-16T00:23:35.733Z,5.74
2023-03-16T00:26:05.961Z,5.71
2023-03-16T00:28:37.240Z,5.68
2023-03-16T00:31:06.993Z,5.65
2023-03-16T00:33:34.849Z,5.72
2023-03-16T00:36:03.937Z,5.64
2023-03-16T00:38:36.523Z,5.64
2023-03-16T00:41:05.832Z,5.61
2023-03-16T00:43:40.884Z,5.63
2023-03-16T00:46:10.316Z,5.64
2023-03-16T00:48:42.672Z,5.65
2023-03-16T00:51:15.344Z,5.61
2023-03-16T00:53:43.892Z,5.58
2023-03-16T00:56:11.681Z,5.62
2023-03-16T00:58:40.262Z,5.64
2023-03-16T01:01:10.036Z,5.60
2023-03-16T01:03:37.429Z,5.57
2023-03-16T01:06:10.347Z,5.53
2023-03-16T01:08:38.412Z,5.54
2023-03-16T01:11:11.020Z,5.51
2023-03-16T01:13:39.616Z,5.48
2023-03-16T01:16:07.071Z,5.33
2023-03-16T01:18:34.289Z,5.36
2023-03-16T01:21:01.903Z,5.40
2023-03-16T01:23:31.554Z,5.41
2023-03-16T01:25:59.531Z,5.30
2023-03-16T01:28:30.292Z,5.26
2023-03-16T01:31:04.737Z,5.23
2023-03-16T01:33:33.717Z,5.19
2023-03-16T01:36:04.428Z,5.18
2023-03-16T01:38:40.147Z,5.13
2023-03-16T01:41:07.602Z,5.11
2023-03-16T01:43:37.414Z,5.09
2023-03-16T01:46:07.247Z,5.12
2023-03-16T01:48:55.354Z,5.09
2023-03-16T01:51:47.809Z,5.01
2023-03-16T01:54:21.793Z,5.09
2023-03-16T01:56:56.714Z,5.09
2023-03-16T01:59:30.549Z,5.08
2023-03-16T02:01:59.128Z,5.05
2023-03-16T02:04:50.736Z,5.05
2023-03-16T02:07:24.704Z,5.03
2023-03-16T02:09:56.231Z,5.02
2023-03-16T02:12:24.349Z,4.95
2023-03-16T02:14:54.216Z,4.84
2023-03-16T02:17:25.069Z,4.89
2023-03-16T02:20:42.597Z,4.94
2023-03-16T02:23:18.529Z,4.97
2023-03-16T02:25:51.675Z,4.90
2023-03-16T02:28:52.316Z,4.87
2023-03-16T02:31:19.575Z,4.79
2023-03-16T02:33:47.760Z,4.80
2023-03-16T02:36:15.422Z,4.78
2023-03-16T02:38:42.657Z,4.71
2023-03-16T02:41:13.770Z,4.78
2023-03-16T02:43:55.595Z,4.72
2023-03-16T02:46:29.300Z,4.70
2023-03-16T02:49:12.548Z,4.74
2023-03-16T02:51:39.238Z,4.68
2023-03-16T02:54:07.530Z,4.57
2023-03-16T02:56:35.170Z,4.57
2023-03-16T02:59:01.833Z,4.61
2023-03-16T03:01:29.474Z,4.64
2023-03-16T03:03:56.123Z,4.73
2023-03-16T03:06:24.719Z,4.69
2023-03-16T03:08:51.453Z,4.62
2023-03-16T03:11:19.658Z,4.56
2023-03-16T03:13:47.089Z,4.54
2023-03-16T03:16:18.493Z,4.55
2023-03-16T03:18:45.244Z,4.57
2023-03-16T03:21:12.101Z,4.59
2023-03-16T03:23:40.448Z,4.57
2023-03-16T03:26:07.994Z,4.57
2023-03-16T03:28:34.725Z,4.54
2023-03-16T03:31:01.821Z,4.49
2023-03-16T03:33:29.678Z,4.40
2023-03-16T03:35:58.555Z,4.40
2023-03-16T03:38:29.161Z,4.42
2023-03-16T03:41:01.882Z,4.40
2023-03-16T03:43:32.443Z,4.39
2023-03-16T03:46:01.070Z,4.42
2023-03-16T03:48:28.733Z,4.34
2023-03-16T03:50:57.140Z,4.25
2023-03-16T03:53:42.062Z,4.24
2023-03-16T03:56:38.222Z,4.16
2023-03-16T03:59:09.440Z,4.17
2023-03-16T04:01:59.014Z,4.14
2023-03-16T04:04:35.093Z,4.12
2023-03-16T04:07:02.270Z,4.00
2023-03-16T04:09:28.988Z,3.97
2023-03-16T04:11:57.601Z,4.03
2023-03-16T04:14:25.816Z,4.00
2023-03-16T04:16:54.689Z,4.04
2023-03-16T04:19:22.787Z,4.07
2023-03-16T04:21:51.698Z,4.09
2023-03-16T04:24:19.646Z,4.10
2023-03-16T04:26:46.629Z,4.10
2023-03-16T04:29:18.039Z,4.18
2023-03-16T04:31:45.978Z,4.12
2023-03-16T04:34:14.093Z,4.10
2023-03-16T04:36:41.896Z,4.07
2023-03-16T04:39:10.563Z,4.06
2023-03-16T04:41:37.859Z,3.96
2023-03-16T04:44:13.739Z,3.92
2023-03-16T04:46:40.770Z,3.94
2023-03-16T04:49:10.972Z,3.92
2023-03-16T04:51:40.709Z,3.94
2023-03-16T04:54:11.276Z,3.89
2023-03-16T04:56:41.706Z,3.81
2023-03-16T04:59:37.352Z,3.83
2023-03-16T05:02:17.741Z,3.88
2023-03-16T05:04:44.462Z,3.88
2023-03-16T05:07:12.432Z,3.83
2023-03-16T05:09:42.964Z,3.79
2023-03-16T05:12:10.557Z,3.81
2023-03-16T05:14:38.180Z,3.79
2023-03-16T05:17:14.781Z,3.77
2023-03-16T05:19:43.038Z,3.74
2023-03-16T05:22:10.498Z,3.76
2023-03-16T05:24:39.749Z,3.78
2023-03-16T05:27:06.611Z,3.82
2023-03-16T05:29:34.372Z,3.75
2023-03-16T05:32:01.230Z,3.68
2023-03-16T05:34:29.415Z,3.66
2023-03-16T05:36:56.031Z,3.60
2023-03-16T05:39:23.627Z,3.57
2023-03-16T05:41:50.588Z,3.55
2023-03-16T05:44:31.166Z,3.59
2023-03-16T05:47:18.140Z,3.59
2023-03-16T05:49:50.239Z,3.57
2023-03-16T05:52:30.190Z,3.53
2023-03-16T05:54:58.938Z,3.49
2023-03-16T05:57:25.905Z,3.48
2023-03-16T05:59:52.912Z,3.49
2023-03-16T06:02:20.822Z,3.44
2023-03-16T06:04:47.524Z,3.41
2023-03-16T06:07:14.300Z,3.41
2023-03-16T06:09:41.002Z,3.39
2023-03-16T06:12:13.604Z,3.37
2023-03-16T06:14:41.287Z,3.39
2023-03-16T06:17:08.148Z,3.40
2023-03-16T06:19:35.263Z,3.51
2023-03-16T06:22:02.580Z,3.50
2023-03-16T06:24:30.426Z,3.47
2023-03-16T06:26:57.049Z,3.44
2023-03-16T06:29:29.902Z,3.43
2023-03-16T06:31:58.072Z,3.43
2023-03-16T06:34:25.193Z,3.54
2023-03-16T06:36:51.941Z,3.61
2023-03-16T06:39:19.276Z,3.71
2023-03-16T06:41:49.602Z,3.61
2023-03-16T06:44:17.438Z,3.78
2023-03-16T06:46:56.510Z,3.87
2023-03-16T06:49:23.476Z,4.06
2023-03-16T06:51:50.766Z,4.20
2023-03-16T06:54:19.083Z,4.21
2023-03-16T06:56:46.454Z,4.28
2023-03-16T06:59:13.358Z,4.34
2023-03-16T07:01:40.072Z,4.37
2023-03-16T07:04:06.982Z,4.38
2023-03-16T07:06:34.611Z,4.51
2023-03-16T07:09:02.118Z,4.60
2023-03-16T07:11:30.748Z,4.69
2023-03-16T07:13:58.653Z,4.80
2023-03-16T07:16:27.107Z,4.82
2023-03-16T07:18:56.291Z,4.83
2023-03-16T07:21:23.040Z,4.86
2023-03-16T07:23:50.479Z,5.04
2023-03-16T07:26:22.050Z,5.16
2023-03-16T07:28:58.003Z,5.17
2023-03-16T07:31:25.712Z,5.25
2023-03-16T07:33:54.516Z,5.28
2023-03-16T07:36:31.392Z,5.35
2023-03-16T07:39:01.324Z,5.34
2023-03-16T07:41:28.085Z,5.42
2023-03-16T07:44:07.627Z,5.40
2023-03-16T07:46:34.410Z,5.44
2023-03-16T07:49:01.418Z,5.52
2023-03-16T07:51:28.211Z,5.52
2023-03-16T07:53:55.407Z,5.55
2023-03-16T07:56:31.610Z,5.60
2023-03-16T07:59:06.927Z,5.65
2023-03-16T08:01:34.413Z,5.76
2023-03-16T08:04:02.000Z,5.91
2023-03-16T08:06:29.546Z,5.91
2023-03-16T08:08:56.281Z,5.93
2023-03-16T08:11:30.022Z,5.94
2023-03-16T08:14:01.033Z,5.99
2023-03-16T08:16:45.236Z,6.06
2023-03-16T08:19:11.952Z,6.09
2023-03-16T08:21:48.837Z,6.21
2023-03-16T08:24:20.419Z,6.25
2023-03-16T08:26:47.560Z,6.42
2023-03-16T08:29:14.718Z,6.43
2023-03-16T08:31:43.465Z,6.49
2023-03-16T08:34:19.966Z,6.45
2023-03-16T08:36:47.523Z,6.45
2023-03-16T08:39:15.753Z,6.41
2023-03-16T08:41:47.116Z,6.52
2023-03-16T08:44:37.055Z,6.62
2023-03-16T08:47:05.165Z,6.71
2023-03-16T08:49:34.924Z,6.77
2023-03-16T08:52:13.013Z,6.92
2023-03-16T08:54:47.155Z,6.99
2023-03-16T08:57:19.599Z,6.87
2023-03-16T08:59:46.218Z,6.96
2023-03-16T09:02:14.662Z,6.98
2023-03-16T09:04:41.570Z,7.14
2023-03-16T09:07:10.005Z,7.15
2023-03-16T09:09:37.331Z,7.13
2023-03-16T09:12:06.090Z,7.11
2023-03-16T09:14:33.273Z,7.08
2023-03-16T09:17:00.020Z,7.17
2023-03-16T09:19:28.010Z,7.44
2023-03-16T09:21:57.343Z,7.51
2023-03-16T09:24:24.546Z,7.64
2023-03-16T09:26:51.766Z,7.53
2023-03-16T09:29:19.043Z,7.56
2023-03-16T09:31:46.346Z,7.55
2023-03-16T09:34:13.629Z,7.61
2023-03-16T09:36:41.567Z,7.63
2023-03-16T09:39:08.798Z,7.68
2023-03-16T09:41:38.222Z,7.78
2023-03-16T09:44:17.087Z,7.97
2023-03-16T09:46:46.249Z,8.00
2023-03-16T09:49:17.584Z,8.04
2023-03-16T09:51:48.860Z,8.36
2023-03-16T09:54:39.161Z,8.72
2023-03-16T09:57:30.729Z,8.61
2023-03-16T10:00:11.613Z,8.63
2023-03-16T10:02:45.642Z,8.57
2023-03-16T10:05:16.093Z,8.95
2023-03-16T10:08:12.783Z,9.26
2023-03-16T10:10:39.942Z,9.40
2023-03-16T10:13:18.052Z,9.28
2023-03-16T10:15:46.894Z,9.30
2023-03-16T10:18:22.245Z,9.59
2023-03-16T10:20:51.183Z,9.52
2023-03-16T10:23:23.001Z,9.31
2023-03-16T10:25:56.863Z,9.44
2023-03-16T10:28:28.706Z,9.50
2023-03-16T10:30:59.064Z,9.44
2023-03-16T10:33:33.645Z,9.57
2023-03-16T10:36:09.374Z,9.72
2023-03-16T10:38:49.254Z,9.73
2023-03-16T10:41:19.173Z,9.94
2023-03-16T10:43:52.064Z,10.22
2023-03-16T10:46:19.189Z,10.61
2023-03-16T10:48:54.837Z,10.67
2023-03-16T10:51:26.334Z,10.68
2023-03-16T10:53:54.546Z,10.67
2023-03-16T10:56:25.324Z,10.80
2023-03-16T10:58:52.290Z,10.81
2023-03-16T11:01:24.348Z,10.91
2023-03-16T11:03:53.193Z,11.31
2023-03-16T11:06:24.807Z,11.30
2023-03-16T11:08:53.922Z,11.38
2023-03-16T11:11:32.587Z,11.44
2023-03-16T11:14:02.873Z,11.46
2023-03-16T11:16:38.764Z,11.51
2023-03-16T11:19:29.197Z,11.50
2023-03-16T11:22:06.483Z,11.55
2023-03-16T11:24:37.749Z,11.66
2023-03-16T11:27:08.957Z,11.85
2023-03-16T11:29:35.591Z,11.94
2023-03-16T11:32:12.898Z,12.00
2023-03-16T11:34:43.389Z,11.92
2023-03-16T11:37:35.432Z,11.98
2023-03-16T11:40:22.225Z,11.81
2023-03-16T11:43:22.215Z,11.65
2023-03-16T11:46:13.892Z,11.57
2023-03-16T11:49:03.817Z,11.88
2023-03-16T11:51:41.159Z,11.73
2023-03-16T11:54:11.882Z,11.82
2023-03-16T11:57:04.553Z,11.93
2023-03-16T11:59:42.366Z,12.09
2023-03-16T12:02:31.379Z,11.85
2023-03-16T12:05:27.608Z,11.70
2023-03-16T12:08:12.470Z,12.09
2023-03-16T12:10:57.141Z,12.54
2023-03-16T12:13:30.689Z,12.64
2023-03-16T12:16:05.708Z,12.47
2023-03-16T12:18:49.856Z,12.70
2023-03-16T12:21:27.394Z,12.72
2023-03-16T12:23:57.516Z,12.74
2023-03-16T12:26:30.135Z,12.67
2023-03-16T12:28:58.611Z,12.80
2023-03-16T12:31:35.156Z,12.73
2023-03-16T12:34:09.838Z,12.86
2023-03-16T12:36:45.608Z,13.01
2023-03-16T12:39:24.895Z,13.01
2023-03-16T12:42:21.102Z,12.91
2023-03-16T12:45:02.563Z,13.03
2023-03-16T12:47:38.500Z,13.14
2023-03-16T12:50:18.731Z,12.95
2023-03-16T12:52:48.695Z,13.06
2023-03-16T12:55:25.169Z,13.14
2023-03-16T12:58:00.899Z,13.20
2023-03-16T13:00:42.546Z,13.24
2023-03-16T13:03:20.139Z,13.28
2023-03-16T13:05:53.710Z,13.49
2023-03-16T13:08:21.495Z,13.57
2023-03-16T13:11:01.356Z,13.47
2023-03-16T13:13:28.518Z,13.57
2023-03-16T13:16:22.200Z,13.53
2023-03-16T13:18:49.314Z,13.57
2023-03-16T13:21:34.414Z,13.56
2023-03-16T13:24:23.143Z,13.64
2023-03-16T13:26:53.585Z,13.77
2023-03-16T13:29:30.837Z,14.00
2023-03-16T13:32:08.782Z,14.06
2023-03-16T13:34:53.716Z,13.96
2023-03-16T13:37:21.883Z,13.98
2023-03-16T13:39:57.373Z,13.97
2023-03-16T13:42:25.358Z,14.03
2023-03-16T13:44:56.754Z,14.02
2023-03-16T13:47:26.576Z,14.15
2023-03-16T13:49:59.045Z,14.18
2023-03-16T13:52:33.314Z,14.24
2023-03-16T13:55:03.150Z,14.34
2023-03-16T13:57:37.602Z,14.37
2023-03-16T14:00:20.087Z,14.37
2023-03-16T14:02:51.634Z,14.28
2023-03-16T14:05:30.245Z,14.34
2023-03-16T14:07:59.397Z,14.26
2023-03-16T14:10:33.208Z,14.33
2023-03-16T14:13:10.036Z,14.45
2023-03-16T14:15:41.121Z,14.44
2023-03-16T14:18:17.416Z,14.43
2023-03-16T14:20:44.849Z,14.55
2023-03-16T14:23:40.619Z,14.56
2023-03-16T14:26:13.759Z,14.50
2023-03-16T14:28:41.731Z,14.56
2023-03-16T14:31:13.181Z,14.51
2023-03-16T14:33:42.922Z,14.58
2023-03-16T14:36:17.666Z,14.68
2023-03-16T14:38:48.308Z,14.77
2023-03-16T14:41:20.423Z,14.67
2023-03-16T14:43:54.364Z,14.60
2023-03-16T14:46:29.434Z,14.53
2023-03-16T14:49:06.975Z,14.50
2023-03-16T14:51:35.892Z,14.46
2023-03-16T14:54:02.830Z,14.50
2023-03-16T14:56:35.440Z,14.49
2023-03-16T14:59:02.225Z,14.56
2023-03-16T15:01:28.972Z,14.50
2023-03-16T15:03:55.895Z,14.55
2023-03-16T15:06:22.916Z,14.57
2023-03-16T15:08:50.861Z,14.59
2023-03-16T15:11:21.530Z,14.60
2023-03-16T15:13:48.740Z,14.47
2023-03-16T15:16:15.499Z,14.36
2023-03-16T15:18:43.089Z,14.31
2023-03-16T15:21:15.658Z,14.33
2023-03-16T15:23:44.001Z,14.36
2023-03-16T15:26:13.045Z,14.32
2023-03-16T15:28:40.149Z,14.34
2023-03-16T15:31:07.075Z,14.28
2023-03-16T15:33:33.966Z,14.25
2023-03-16T15:36:09.659Z,14.31
2023-03-16T15:38:40.803Z,14.29
2023-03-16T15:41:11.690Z,14.29
2023-03-16T15:43:38.561Z,14.26
2023-03-16T15:46:06.301Z,14.25
2023-03-16T15:48:33.568Z,14.10
2023-03-16T15:51:07.630Z,14.08
2023-03-16T15:53:43.615Z,14.09
2023-03-16T15:56:13.914Z,13.94
2023-03-16T15:58:43.417Z,13.90
2023-03-16T16:01:21.364Z,13.84
2023-03-16T16:03:48.404Z,13.80
2023-03-16T16:06:16.504Z,13.78
2023-03-16T16:08:43.382Z,13.71
2023-03-16T16:11:19.322Z,13.71
2023-03-16T16:13:46.885Z,13.71
2023-03-16T16:16:17.819Z,13.64
2023-03-16T16:18:46.722Z,13.56
2023-03-16T16:21:19.152Z,13.50
2023-03-16T16:23:46.626Z,13.52
2023-03-16T16:26:22.407Z,13.50
2023-03-16T16:28:49.373Z,13.55
2023-03-16T16:31:16.554Z,13.46
2023-03-16T16:33:43.326Z,13.47
2023-03-16T16:36:20.328Z,13.41
2023-03-16T16:38:48.604Z,13.28
2023-03-16T16:41:26.818Z,13.14
2023-03-16T16:43:54.224Z,13.03
2023-03-16T16:46:24.334Z,12.90
2023-03-16T16:48:54.465Z,12.72
2023-03-16T16:51:27.735Z,12.69
2023-03-16T16:53:57.508Z,12.65
2023-03-16T16:56:33.582Z,12.60
2023-03-16T16:59:11.213Z,12.50
2023-03-16T17:01:39.002Z,12.46
2023-03-16T17:04:13.580Z,12.43
2023-03-16T17:06:40.309Z,12.43
2023-03-16T17:09:08.789Z,12.34
2023-03-16T17:11:37.296Z,12.31
2023-03-16T17:14:06.368Z,12.26
2023-03-16T17:16:36.730Z,12.21
2023-03-16T17:19:04.192Z,12.16
2023-03-16T17:21:31.406Z,12.09
2023-03-16T17:24:00.229Z,12.06
2023-03-16T17:26:34.471Z,12.05
2023-03-16T17:29:03.988Z,12.00
2023-03-16T17:31:39.481Z,11.93
2023-03-16T17:34:16.420Z,11.93
2023-03-16T17:36:44.159Z,11.86
2023-03-16T17:39:32.522Z,11.89
2023-03-16T17:42:01.986Z,11.85
2023-03-16T17:44:35.559Z,11.80
2023-03-16T17:47:02.475Z,11.77
2023-03-16T17:49:30.757Z,11.69
2023-03-16T17:51:57.723Z,11.68
2023-03-16T17:54:24.388Z,11.61
2023-03-16T17:56:53.878Z,11.57
2023-03-16T17:59:22.355Z,11.51
2023-03-16T18:01:49.262Z,11.48
2023-03-16T18:04:25.837Z,11.45
2023-03-16T18:06:52.967Z,11.41
2023-03-16T18:09:20.963Z,11.35
2023-03-16T18:11:51.149Z,11.26
2023-03-16T18:14:39.769Z,11.16
2023-03-16T18:17:36.361Z,11.17
2023-03-16T18:20:05.574Z,11.06
2023-03-16T18:22:32.268Z,10.95
2023-03-16T18:25:01.098Z,10.93
2023-03-16T18:27:27.779Z,10.90
2023-03-16T18:29:54.737Z,10.81
2023-03-16T18:32:27.211Z,10.80
2023-03-16T18:34:54.175Z,10.74
2023-03-16T18:37:23.681Z,10.64
2023-03-16T18:39:51.962Z,10.62
2023-03-16T18:42:24.279Z,10.62
2023-03-16T18:44:51.619Z,10.55
2023-03-16T18:47:22.059Z,10.51
2023-03-16T18:49:51.477Z,10.55
2023-03-16T18:52:22.124Z,10.46
2023-03-16T18:54:50.018Z,10.42
2023-03-16T18:57:21.447Z,10.47
2023-03-16T18:59:49.061Z,10.45
2023-03-16T19:02:37.341Z,10.43
2023-03-16T19:05:07.842Z,10.48
2023-03-16T19:07:37.721Z,10.33
2023-03-16T19:10:23.066Z,10.25
2023-03-16T19:12:50.783Z,10.15
2023-03-16T19:15:22.355Z,10.08
2023-03-16T19:17:49.934Z,10.02
2023-03-16T19:20:19.510Z,9.96
2023-03-16T19:22:49.009Z,9.85
2023-03-16T19:25:24.135Z,9.86
2023-03-16T19:27:51.274Z,9.92
2023-03-16T19:30:37.056Z,9.94
2023-03-16T19:33:10.658Z,9.96
2023-03-16T19:35:51.121Z,9.98
2023-03-16T19:38:19.304Z,10.02
2023-03-16T19:40:49.174Z,9.97
2023-03-16T19:43:18.476Z,10.00
2023-03-16T19:45:46.816Z,10.04
2023-03-16T19:48:20.212Z,10.07
2023-03-16T19:50:49.246Z,10.00
2023-03-16T19:53:22.441Z,9.95
2023-03-16T19:55:51.867Z,9.93
2023-03-16T19:58:21.029Z,9.94
2023-03-16T20:00:47.981Z,9.81
2023-03-16T20:03:14.797Z,9.75
2023-03-16T20:05:41.594Z,9.75
2023-03-16T20:08:27.328Z,9.69
2023-03-16T20:11:02.116Z,9.68
2023-03-16T20:13:31.833Z,9.67
2023-03-16T20:15:59.322Z,9.63
2023-03-16T20:18:28.643Z,9.59
2023-03-16T20:20:55.848Z,9.52
2023-03-16T20:23:28.489Z,9.61
2023-03-16T20:26:01.988Z,9.49
2023-03-16T20:28:36.132Z,9.43
2023-03-16T20:31:05.135Z,9.36
2023-03-16T20:33:32.110Z,9.38
2023-03-16T20:35:58.813Z,9.37
2023-03-16T20:38:25.674Z,9.35
2023-03-16T20:40:54.378Z,9.28
2023-03-16T20:43:26.459Z,9.23
2023-03-16T20:45:55.839Z,9.20
2023-03-16T20:48:25.452Z,9.19
2023-03-16T20:50:54.026Z,9.12
2023-03-16T20:53:21.561Z,9.10
2023-03-16T20:55:52.651Z,9.03
2023-03-16T20:58:25.613Z,9.08
2023-03-16T21:00:57.647Z,9.08
2023-03-16T21:03:27.992Z,9.06
2023-03-16T21:05:59.589Z,9.02
2023-03-16T21:08:27.168Z,8.98
2023-03-16T21:10:56.296Z,8.95
2023-03-16T21:13:32.349Z,8.94
2023-03-16T21:16:01.893Z,8.92
2023-03-16T21:18:30.453Z,8.88
2023-03-16T21:20:58.284Z,8.88
2023-03-16T21:23:24.933Z,8.79
2023-03-16T21:25:55.761Z,8.79
2023-03-16T21:28:25.562Z,8.81
2023-03-16T21:30:54.929Z,8.73
2023-03-16T21:33:35.190Z,8.71
2023-03-16T21:36:04.262Z,8.72
2023-03-16T21:38:32.017Z,8.73
2023-03-16T21:40:59.242Z,8.72
2023-03-16T21:43:26.733Z,8.72
2023-03-16T21:45:55.164Z,8.71
2023-03-16T21:48:25.409Z,8.68
2023-03-16T21:50:53.816Z,8.65
2023-03-16T21:53:23.450Z,8.67
2023-03-16T21:55:52.085Z,8.59
2023-03-16T21:58:19.375Z,8.55
2023-03-16T22:00:47.377Z,8.57
2023-03-16T22:03:23.067Z,8.53
2023-03-16T22:05:51.090Z,8.48
2023-03-16T22:08:21.467Z,8.45
2023-03-16T22:10:48.456Z,8.46
2023-03-16T22:13:15.286Z,8.47
2023-03-16T22:15:43.631Z,8.42
2023-03-16T22:18:28.213Z,8.42
2023-03-16T22:21:00.636Z,8.39
2023-03-16T22:23:30.870Z,8.32
2023-03-16T22:25:58.347Z,8.28
2023-03-16T22:28:26.455Z,8.22
2023-03-16T22:30:54.598Z,8.30
2023-03-16T22:33:28.174Z,8.24
2023-03-16T22:35:58.683Z,8.12
2023-03-16T22:38:25.463Z,8.10
2023-03-16T22:40:52.272Z,8.10
2023-03-16T22:43:27.399Z,8.05
2023-03-16T22:45:56.514Z,8.05
2023-03-16T22:48:27.916Z,8.07
2023-03-16T22:50:58.227Z,8.05
2023-03-16T22:53:41.386Z,8.01
2023-03-16T22:56:10.346Z,7.97
2023-03-16T22:58:41.679Z,7.99
2023-03-16T23:01:17.167Z,7.91
2023-03-16T23:03:45.378Z,7.80
2023-03-16T23:06:18.905Z,7.83
2023-03-16T23:08:45.888Z,7.78
2023-03-16T23:11:32.211Z,7.79
2023-03-16T23:13:59.832Z,7.83
2023-03-16T23:16:31.300Z,7.84
2023-03-16T23:18:58.011Z,7.87
2023-03-16T23:21:26.370Z,7.80
2023-03-16T23:24:03.091Z,7.78
2023-03-16T23:26:30.848Z,7.75
2023-03-16T23:28:57.552Z,7.71
2023-03-16T23:31:27.183Z,7.69
2023-03-16T23:33:53.943Z,7.74
2023-03-16T23:36:23.038Z,7.72
2023-03-16T23:38:50.615Z,7.72
2023-03-16T23:41:20.560Z,7.67
2023-03-16T23:43:48.680Z,7.67
2023-03-16T23:46:19.612Z,7.65
2023-03-16T23:48:48.761Z,7.59
2023-03-16T23:51:25.549Z,7.68
2023-03-16T23:53:53.172Z,7.67
2023-03-16T23:56:20.136Z,7.62
2023-03-16T23:58:46.859Z,7.55
